createdAt,value
2022-11-30T00:00:41.017Z,8.23
2022-11-30T00:03:08.591Z,7.45
2022-11-30T00:05:35.255Z,8.00
2022-11-30T00:08:01.866Z,8.20
2022-11-30T00:10:28.465Z,9.10
2022-11-30T00:12:55.159Z,6.18
2022-11-30T00:15:21.804Z,8.35
2022-11-30T00:17:48.481Z,6.82
2022-11-30T00:20:15.871Z,7.80
2022-11-30T00:22:42.991Z,6.47
2022-11-30T00:25:10.037Z,5.95
2022-11-30T00:27:36.722Z,5.97
2022-11-30T00:30:03.920Z,6.45
2022-11-30T00:32:30.474Z,5.90
2022-11-30T00:34:57.071Z,4.32
2022-11-30T00:37:23.657Z,6.70
2022-11-30T00:39:50.247Z,6.65
2022-11-30T00:42:16.896Z,6.43
2022-11-30T00:44:43.519Z,6.45
2022-11-30T00:47:10.135Z,6.38
2022-11-30T00:49:36.725Z,5.32
2022-11-30T00:52:03.738Z,6.65
2022-11-30T00:54:30.355Z,7.28
2022-11-30T00:56:57.017Z,5.88
2022-11-30T00:59:23.626Z,6.13
2022-11-30T01:01:50.259Z,7.65
2022-11-30T01:04:16.858Z,6.63
2022-11-30T01:06:43.438Z,7.13
2022-11-30T01:09:10.077Z,6.88
2022-11-30T01:11:36.704Z,6.85
2022-11-30T01:14:03.410Z,6.13
2022-11-30T01:16:32.730Z,6.70
2022-11-30T01:19:00.038Z,4.20
2022-11-30T01:21:29.326Z,7.38
2022-11-30T01:23:57.415Z,6.28
2022-11-30T01:26:25.193Z,6.53
2022-11-30T01:28:54.570Z,6.43
2022-11-30T01:31:24.796Z,6.70
2022-11-30T01:33:56.155Z,6.50
2022-11-30T01:36:26.360Z,7.85
2022-11-30T01:38:57.296Z,7.15
2022-11-30T01:41:28.358Z,6.63
2022-11-30T01:43:58.232Z,6.13
2022-11-30T01:46:46.678Z,5.43
2022-11-30T01:49:18.329Z,6.80
2022-11-30T01:51:51.869Z,6.82
2022-11-30T01:54:23.265Z,6.35
2022-11-30T01:56:55.913Z,7.00
2022-11-30T01:59:24.765Z,6.80
2022-11-30T02:01:54.023Z,6.68
2022-11-30T02:04:28.824Z,7.75
2022-11-30T02:06:57.670Z,7.10
2022-11-30T02:09:26.832Z,7.25
2022-11-30T02:11:53.988Z,7.30
2022-11-30T02:29:23.337Z,6.18
2022-11-30T02:32:15.409Z,5.45
2022-11-30T02:34:44.097Z,5.40
2022-11-30T02:37:13.863Z,4.95
2022-11-30T02:39:40.483Z,5.72
2022-11-30T02:42:12.679Z,5.70
2022-11-30T02:44:41.876Z,5.78
2022-11-30T02:52:26.777Z,5.93
2022-11-30T02:54:59.235Z,5.63
2022-11-30T02:57:25.825Z,7.28
2022-11-30T02:59:52.947Z,6.38
2022-11-30T03:02:19.549Z,6.32
2022-11-30T03:04:46.385Z,6.20
2022-11-30T03:07:13.168Z,8.05
2022-11-30T03:09:39.810Z,5.93
2022-11-30T03:12:06.575Z,6.65
2022-11-30T03:14:33.192Z,7.05
2022-11-30T03:16:59.769Z,6.95
2022-11-30T03:19:26.417Z,7.00
2022-11-30T03:21:52.992Z,7.22
2022-11-30T03:24:19.577Z,6.57
2022-11-30T03:26:46.278Z,6.28
2022-11-30T03:29:12.856Z,7.32
2022-11-30T03:31:39.448Z,7.75
2022-11-30T03:34:06.004Z,6.72
2022-11-30T03:36:32.577Z,7.18
2022-11-30T03:38:59.174Z,6.57
2022-11-30T03:41:25.820Z,8.27
2022-11-30T03:43:52.385Z,6.88
2022-11-30T03:46:19.009Z,7.50
2022-11-30T03:48:45.962Z,5.90
2022-11-30T03:51:13.326Z,7.32
2022-11-30T03:53:40.892Z,6.18
2022-11-30T03:56:09.546Z,6.78
2022-11-30T03:58:36.676Z,6.30
2022-11-30T04:01:24.532Z,6.47
2022-11-30T04:03:52.305Z,8.00
2022-11-30T04:06:19.306Z,7.07
2022-11-30T04:08:46.541Z,7.55
2022-11-30T04:11:13.396Z,7.07
2022-11-30T04:13:40.679Z,8.38
2022-11-30T04:16:08.310Z,6.57
2022-11-30T04:18:36.467Z,8.23
2022-11-30T04:21:03.970Z,6.72
2022-11-30T04:23:33.457Z,7.30
2022-11-30T04:26:00.041Z,6.95
2022-11-30T04:28:26.619Z,6.45
2022-11-30T04:30:54.340Z,6.90
2022-11-30T04:33:21.133Z,7.03
2022-11-30T04:35:51.591Z,6.80
2022-11-30T04:40:44.803Z,6.40
2022-11-30T04:43:12.137Z,7.53
2022-11-30T04:45:39.236Z,7.28
2022-11-30T04:48:06.824Z,7.13
2022-11-30T04:50:33.711Z,7.82
2022-11-30T04:53:00.448Z,7.90
2022-11-30T04:55:27.061Z,7.50
2022-11-30T04:57:53.714Z,8.45
2022-11-30T05:00:20.818Z,8.18
2022-11-30T05:02:52.532Z,7.65
2022-11-30T05:05:20.200Z,7.47
2022-11-30T05:07:51.471Z,8.73
2022-11-30T05:10:18.269Z,8.68
2022-11-30T05:12:45.368Z,7.63
2022-11-30T05:15:12.373Z,8.27
2022-11-30T05:17:39.674Z,8.65
2022-11-30T05:20:06.982Z,8.98
2022-11-30T05:22:35.221Z,8.65
2022-11-30T05:25:02.145Z,9.13
2022-11-30T05:27:28.850Z,8.60
2022-11-30T05:29:55.442Z,9.77
2022-11-30T05:32:22.040Z,8.57
2022-11-30T05:34:52.209Z,9.43
2022-11-30T05:37:19.876Z,9.35
2022-11-30T05:39:46.559Z,9.18
2022-11-30T05:42:13.139Z,8.98
2022-11-30T05:44:39.762Z,10.65
2022-11-30T05:47:06.712Z,9.82
2022-11-30T05:49:33.348Z,9.63
2022-11-30T05:51:59.921Z,8.85
2022-11-30T05:54:26.482Z,8.05
2022-11-30T05:56:55.083Z,10.20
2022-11-30T05:59:22.623Z,8.60
2022-11-30T06:01:51.397Z,8.90
2022-11-30T06:04:18.041Z,9.93
2022-11-30T06:06:44.596Z,8.63
2022-11-30T06:09:11.209Z,9.75
2022-11-30T06:11:37.764Z,9.88
2022-11-30T06:14:04.425Z,8.68
2022-11-30T06:16:30.999Z,9.38
2022-11-30T06:18:57.744Z,8.27
2022-11-30T06:21:25.011Z,8.60
2022-11-30T06:23:52.520Z,9.52
2022-11-30T06:26:19.124Z,10.70
2022-11-30T06:28:48.367Z,8.43
2022-11-30T06:31:15.600Z,9.63
2022-11-30T06:33:42.281Z,9.07
2022-11-30T06:36:09.261Z,9.73
2022-11-30T06:38:35.845Z,8.75
2022-11-30T06:41:08.628Z,9.35
2022-11-30T06:43:36.829Z,11.00
2022-11-30T06:46:04.730Z,9.63
2022-11-30T06:48:31.623Z,9.90
2022-11-30T06:50:58.955Z,11.05
2022-11-30T06:53:25.997Z,9.40
2022-11-30T06:55:53.473Z,9.57
2022-11-30T06:58:20.032Z,10.15
2022-11-30T07:00:46.775Z,10.18
2022-11-30T07:03:14.298Z,9.65
2022-11-30T07:05:44.381Z,8.10
2022-11-30T07:08:12.278Z,10.70
2022-11-30T07:10:41.223Z,10.13
2022-11-30T07:13:11.208Z,9.85
2022-11-30T07:15:39.099Z,11.73
2022-11-30T07:18:05.978Z,10.73
2022-11-30T07:20:33.141Z,9.57
2022-11-30T07:23:19.844Z,9.50
2022-11-30T07:26:06.360Z,7.97
2022-11-30T07:28:36.097Z,9.93
2022-11-30T07:31:16.383Z,8.20
2022-11-30T07:33:43.675Z,7.82
2022-11-30T07:36:10.619Z,7.95
2022-11-30T07:38:38.265Z,8.13
2022-11-30T07:41:05.162Z,9.30
2022-11-30T07:43:32.101Z,8.73
2022-11-30T07:45:59.136Z,9.48
2022-11-30T07:48:25.782Z,8.23
2022-11-30T07:50:52.457Z,7.90
2022-11-30T07:53:19.045Z,9.48
2022-11-30T07:55:45.908Z,7.28
2022-11-30T07:58:17.097Z,8.63
2022-11-30T08:00:44.237Z,7.85
2022-11-30T08:03:10.960Z,9.18
2022-11-30T08:05:37.512Z,8.18
2022-11-30T08:08:04.189Z,7.85
2022-11-30T08:10:30.785Z,9.13
2022-11-30T08:12:57.370Z,8.50
2022-11-30T08:15:29.183Z,8.85
2022-11-30T08:18:05.180Z,7.85
2022-11-30T08:20:31.797Z,9.82
2022-11-30T08:22:58.873Z,8.43
2022-11-30T08:25:25.479Z,7.95
2022-11-30T08:27:52.043Z,7.57
2022-11-30T08:30:18.713Z,9.15
2022-11-30T08:32:45.260Z,7.70
2022-11-30T08:35:11.850Z,8.18
2022-11-30T08:37:38.913Z,9.25
2022-11-30T08:40:06.251Z,8.98
2022-11-30T08:42:32.835Z,10.15
2022-11-30T08:44:59.767Z,7.95
2022-11-30T08:47:26.720Z,7.35
2022-11-30T08:49:53.345Z,9.63
2022-11-30T08:52:20.037Z,7.50
2022-11-30T08:54:48.669Z,10.73
2022-11-30T08:57:17.650Z,8.48
2022-11-30T08:59:44.769Z,9.35
2022-11-30T09:02:13.449Z,8.05
2022-11-30T09:04:40.025Z,9.90
2022-11-30T09:07:06.717Z,9.00
2022-11-30T09:09:33.311Z,9.75
2022-11-30T09:11:59.895Z,7.32
2022-11-30T09:14:26.631Z,9.18
2022-11-30T09:16:54.424Z,9.40
2022-11-30T09:19:21.499Z,8.68
2022-11-30T09:21:51.872Z,8.35
2022-11-30T09:24:19.451Z,7.82
2022-11-30T09:26:45.989Z,10.10
2022-11-30T09:29:12.590Z,8.75
2022-11-30T09:31:39.213Z,11.15
2022-11-30T09:34:05.792Z,9.32
2022-11-30T09:36:34.019Z,9.57
2022-11-30T09:39:00.892Z,9.70
2022-11-30T09:44:20.036Z,8.65
2022-11-30T09:46:53.272Z,9.70
2022-11-30T09:49:27.517Z,10.38
2022-11-30T09:51:58.636Z,7.82
2022-11-30T09:54:36.149Z,8.45
2022-11-30T09:57:18.718Z,7.88
2022-11-30T09:59:53.497Z,7.13
2022-11-30T10:02:22.494Z,7.35
2022-11-30T10:04:49.783Z,7.00
2022-11-30T10:07:49.564Z,7.03
2022-11-30T10:27:12.491Z,7.60
2022-11-30T10:29:41.983Z,5.60
2022-11-30T10:34:55.023Z,5.55
2022-11-30T10:37:29.017Z,5.43
2022-11-30T10:45:29.222Z,5.90
2022-11-30T10:48:03.855Z,4.53
2022-11-30T10:50:31.620Z,6.00
2022-11-30T10:53:00.279Z,5.13
2022-11-30T10:55:31.517Z,6.00
2022-11-30T10:58:05.251Z,6.68
2022-11-30T11:00:32.532Z,6.10
2022-11-30T11:02:59.181Z,5.72
2022-11-30T11:05:29.420Z,4.78
2022-11-30T11:13:36.680Z,8.65
2022-11-30T11:16:04.909Z,5.13
2022-11-30T11:18:33.592Z,5.68
2022-11-30T11:21:18.763Z,6.20
2022-11-30T11:23:47.389Z,7.28
2022-11-30T11:28:56.276Z,6.75
2022-11-30T11:31:44.291Z,6.07
2022-11-30T11:34:34.555Z,5.65
2022-11-30T11:37:33.934Z,6.15
2022-11-30T11:42:45.754Z,5.22
2022-11-30T11:45:30.851Z,6.05
2022-11-30T11:48:01.529Z,5.88
2022-11-30T11:51:05.590Z,5.60
2022-11-30T11:53:38.044Z,6.13
2022-11-30T11:56:23.810Z,4.90
2022-11-30T12:06:53.015Z,4.78
2022-11-30T12:09:27.472Z,5.32
2022-11-30T12:11:54.082Z,6.03
2022-11-30T12:14:20.667Z,5.15
2022-11-30T12:19:54.579Z,4.90
2022-11-30T12:28:21.618Z,6.20
2022-11-30T12:39:15.080Z,5.18
2022-11-30T12:41:50.906Z,4.80
2022-11-30T12:44:45.253Z,4.22
2022-11-30T13:04:04.407Z,4.85
2022-11-30T13:06:41.064Z,5.38
2022-11-30T13:11:58.154Z,6.50
2022-11-30T13:14:27.183Z,7.00
2022-11-30T13:17:01.493Z,7.00
2022-11-30T13:22:17.462Z,7.63
2022-11-30T13:24:52.235Z,6.13
2022-11-30T13:27:26.559Z,5.25
2022-11-30T13:33:00.069Z,7.70
2022-11-30T13:41:05.546Z,7.95
2022-11-30T13:43:43.181Z,9.00
2022-11-30T13:48:47.670Z,6.80
2022-11-30T13:51:34.651Z,6.38
2022-11-30T13:59:56.407Z,5.95
2022-11-30T14:18:31.574Z,7.38
2022-11-30T14:21:04.522Z,7.57
2022-11-30T14:26:13.473Z,5.95
2022-11-30T14:28:50.375Z,5.57
2022-11-30T14:31:22.270Z,5.57
2022-11-30T14:36:35.589Z,7.18
2022-11-30T14:39:02.430Z,5.70
2022-11-30T14:41:30.960Z,5.80
2022-11-30T14:44:03.470Z,5.63
2022-11-30T14:46:31.412Z,4.78
2022-11-30T14:51:48.290Z,5.57
2022-11-30T14:54:30.913Z,5.30
2022-11-30T14:57:09.134Z,5.45
2022-11-30T15:04:57.939Z,4.47
2022-11-30T15:07:26.436Z,4.60
2022-11-30T15:10:01.753Z,5.55
2022-11-30T15:12:28.442Z,6.10
2022-11-30T15:15:15.378Z,4.80
2022-11-30T15:17:47.244Z,5.13
2022-11-30T15:20:28.867Z,5.18
2022-11-30T15:22:58.501Z,5.30
2022-11-30T15:25:34.070Z,5.22
2022-11-30T15:28:01.455Z,5.25
2022-11-30T15:30:28.540Z,5.32
2022-11-30T15:32:57.597Z,4.75
2022-11-30T15:35:38.798Z,6.47
2022-11-30T15:38:19.480Z,6.13
2022-11-30T15:40:51.829Z,5.70
2022-11-30T15:43:23.744Z,5.88
2022-11-30T15:45:57.212Z,6.25
2022-11-30T15:48:35.787Z,6.32
2022-11-30T15:51:02.660Z,5.50
2022-11-30T15:53:50.098Z,6.85
2022-11-30T15:56:26.995Z,5.75
2022-11-30T16:05:14.474Z,7.32
2022-11-30T16:08:01.321Z,6.05
2022-11-30T16:10:35.566Z,6.75
2022-11-30T16:13:02.664Z,7.03
2022-11-30T16:15:32.761Z,7.15
2022-11-30T16:18:13.584Z,6.97
2022-11-30T16:20:42.786Z,6.45
2022-11-30T16:23:15.146Z,7.97
2022-11-30T16:25:43.063Z,7.32
2022-11-30T16:28:11.397Z,6.90
2022-11-30T16:30:38.738Z,6.80
2022-11-30T16:33:05.804Z,7.00
2022-11-30T16:35:57.150Z,7.93
2022-11-30T16:38:24.914Z,7.40
2022-11-30T16:40:54.036Z,8.10
2022-11-30T16:43:20.846Z,8.25
2022-11-30T16:45:50.521Z,7.53
2022-11-30T16:48:17.812Z,6.95
2022-11-30T16:50:44.904Z,7.40
2022-11-30T16:53:15.722Z,7.30
2022-11-30T16:55:42.540Z,7.88
2022-11-30T16:58:09.122Z,7.80
2022-11-30T17:00:36.052Z,8.25
2022-11-30T17:03:16.665Z,8.63
2022-11-30T17:05:43.240Z,8.32
2022-11-30T17:08:10.682Z,7.25
2022-11-30T17:10:38.642Z,6.70
2022-11-30T17:13:05.977Z,7.65
2022-11-30T17:15:32.596Z,9.05
2022-11-30T17:17:59.465Z,8.88
2022-11-30T17:20:27.867Z,8.95
2022-11-30T17:22:54.453Z,7.47
2022-11-30T17:25:22.561Z,8.15
2022-11-30T17:27:49.997Z,6.63
2022-11-30T17:30:19.548Z,8.02
2022-11-30T17:32:46.725Z,8.90
2022-11-30T17:35:14.523Z,8.23
2022-11-30T17:37:41.062Z,6.93
2022-11-30T17:40:08.814Z,7.70
2022-11-30T17:42:35.364Z,8.13
2022-11-30T17:45:01.873Z,7.30
2022-11-30T17:47:28.458Z,8.27
2022-11-30T17:49:55.112Z,8.00
2022-11-30T17:52:21.675Z,9.43
2022-11-30T17:54:48.488Z,9.45
2022-11-30T17:57:15.130Z,9.35
2022-11-30T17:59:41.678Z,8.95
2022-11-30T18:02:11.743Z,8.90
2022-11-30T18:04:38.374Z,8.75
2022-11-30T18:07:04.939Z,9.15
2022-11-30T18:09:37.830Z,8.68
2022-11-30T18:12:07.787Z,9.43
2022-11-30T18:14:34.359Z,9.07
2022-11-30T18:17:00.949Z,9.07
2022-11-30T18:19:28.151Z,9.55
2022-11-30T18:21:55.549Z,9.73
2022-11-30T18:24:25.193Z,9.70
2022-11-30T18:26:52.664Z,9.93
2022-11-30T18:29:19.876Z,9.48
2022-11-30T18:31:48.495Z,8.90
2022-11-30T18:34:15.467Z,8.45
2022-11-30T18:36:42.061Z,9.40
2022-11-30T18:39:08.883Z,11.98
2022-11-30T18:41:35.635Z,15.25
2022-11-30T18:44:02.194Z,16.73
2022-11-30T18:46:28.773Z,14.32
2022-11-30T18:48:56.425Z,14.35
2022-11-30T18:51:26.148Z,13.48
2022-11-30T18:53:59.746Z,32.85
2022-11-30T18:56:28.877Z,25.60
2022-11-30T18:58:57.950Z,13.82
2022-11-30T19:01:25.711Z,14.45
2022-11-30T19:03:54.788Z,12.00
2022-11-30T19:06:21.831Z,12.43
2022-11-30T19:08:48.779Z,9.70
2022-11-30T19:11:16.861Z,8.95
2022-11-30T19:13:44.570Z,9.15
2022-11-30T19:16:14.639Z,9.95
2022-11-30T19:18:41.413Z,8.68
2022-11-30T19:21:10.058Z,9.13
2022-11-30T19:23:38.078Z,8.13
2022-11-30T19:26:06.782Z,7.72
2022-11-30T19:28:35.314Z,6.78
2022-11-30T19:31:09.365Z,7.53
2022-11-30T19:33:38.362Z,8.38
2022-11-30T19:36:06.685Z,5.85
2022-11-30T19:38:33.456Z,7.00
2022-11-30T19:41:04.919Z,6.60
2022-11-30T19:43:31.497Z,5.70
2022-11-30T19:46:05.644Z,7.43
2022-11-30T19:48:33.108Z,7.45
2022-11-30T19:51:00.008Z,8.02
2022-11-30T19:53:28.117Z,7.57
2022-11-30T19:55:57.958Z,7.15
2022-11-30T19:58:24.796Z,6.82
2022-11-30T20:00:51.382Z,6.53
2022-11-30T20:03:18.849Z,7.32
2022-11-30T20:05:49.295Z,7.05
2022-11-30T20:08:16.191Z,7.00
2022-11-30T20:10:42.819Z,8.35
2022-11-30T20:13:10.981Z,8.00
2022-11-30T20:15:39.464Z,8.75
2022-11-30T20:18:07.500Z,7.95
2022-11-30T20:20:34.847Z,8.55
2022-11-30T20:23:01.954Z,6.25
2022-11-30T20:25:31.107Z,6.55
2022-11-30T20:27:57.959Z,7.05
2022-11-30T20:32:51.683Z,7.40
2022-11-30T20:35:18.255Z,8.73
2022-11-30T20:37:44.845Z,8.82
2022-11-30T20:40:11.850Z,9.07
2022-11-30T20:42:38.504Z,8.85
2022-11-30T20:45:05.539Z,8.05
2022-11-30T20:47:35.341Z,7.18
2022-11-30T20:50:03.016Z,8.30
2022-11-30T20:52:29.655Z,7.68
2022-11-30T20:54:56.183Z,8.07
2022-11-30T20:57:23.269Z,8.30
2022-11-30T20:59:49.852Z,8.00
2022-11-30T21:02:16.567Z,6.38
2022-11-30T21:04:43.228Z,8.02
2022-11-30T21:07:09.734Z,7.65
2022-11-30T21:09:36.275Z,7.55
2022-11-30T21:12:02.921Z,5.97
2022-11-30T21:14:29.468Z,7.75
2022-11-30T21:16:55.989Z,7.82
2022-11-30T21:19:22.564Z,9.23
2022-11-30T21:21:49.123Z,9.40
2022-11-30T21:24:15.718Z,9.25
2022-11-30T21:26:43.582Z,7.82
2022-11-30T21:29:12.838Z,8.32
2022-11-30T21:31:39.800Z,7.20
2022-11-30T21:34:06.666Z,9.10
2022-11-30T21:36:33.671Z,9.52
2022-11-30T21:39:05.953Z,8.65
2022-11-30T21:41:35.412Z,10.23
2022-11-30T21:44:02.849Z,9.70
2022-11-30T21:46:30.078Z,9.93
2022-11-30T21:48:56.848Z,10.35
2022-11-30T21:51:26.176Z,12.00
2022-11-30T21:53:55.039Z,11.90
2022-11-30T21:56:25.625Z,11.73
2022-11-30T21:58:54.010Z,12.55
2022-11-30T22:01:25.491Z,14.90
2022-11-30T22:03:54.042Z,14.10
2022-11-30T22:06:23.353Z,13.52
2022-11-30T22:08:50.305Z,12.88
2022-11-30T22:11:21.460Z,12.15
2022-11-30T22:13:53.038Z,13.30
2022-11-30T22:16:22.034Z,16.10
2022-11-30T22:18:48.998Z,15.00
2022-11-30T22:21:17.812Z,10.48
2022-11-30T22:23:47.366Z,12.43
2022-11-30T22:28:54.934Z,12.32
2022-11-30T22:31:24.020Z,12.20
2022-11-30T22:33:50.934Z,14.52
2022-11-30T22:36:21.831Z,14.68
2022-11-30T22:38:54.223Z,15.10
2022-11-30T22:41:21.003Z,14.50
2022-11-30T22:43:48.134Z,15.23
2022-11-30T22:46:17.864Z,13.32
2022-11-30T22:48:45.488Z,15.73
2022-11-30T22:51:14.733Z,10.68
2022-11-30T22:53:41.823Z,11.52
2022-11-30T22:56:12.971Z,10.13
2022-11-30T22:58:40.936Z,10.13
2022-11-30T23:01:10.555Z,8.02
2022-11-30T23:03:38.105Z,9.50
2022-11-30T23:06:05.520Z,8.32
2022-11-30T23:08:32.283Z,8.43
2022-11-30T23:11:00.131Z,8.77
2022-11-30T23:13:27.608Z,8.52
2022-11-30T23:15:57.504Z,9.02
2022-11-30T23:18:24.649Z,9.45
2022-11-30T23:20:51.215Z,9.27
2022-11-30T23:23:18.348Z,10.35
2022-11-30T23:25:44.953Z,9.25
2022-11-30T23:28:11.512Z,9.15
2022-11-30T23:30:38.054Z,8.73
2022-11-30T23:33:04.739Z,8.48
2022-11-30T23:35:31.315Z,7.97
2022-11-30T23:37:57.868Z,7.90
2022-11-30T23:40:24.400Z,9.05
2022-11-30T23:42:50.986Z,7.57
2022-11-30T23:45:17.619Z,8.40
2022-11-30T23:47:44.173Z,8.85
2022-11-30T23:50:11.167Z,9.70
2022-11-30T23:52:37.813Z,9.80
2022-11-30T23:55:04.765Z,10.32
2022-11-30T23:57:31.313Z,9.15
2022-11-30T23:59:57.877Z,8.02
